Stations météo

réclame
Mon MeteoGroup
Chateau Chinon, France (7270): Température de l'air & dewpoint: 17.09.2017 21:00:00 - 23.09.2017 21:00:00 (CEST)Chateau Chinon, France (7270): Vitesse du vent & gusts: 17.09.2017 21:00:00 - 23.09.2017 21:00:00 (CEST)Chateau Chinon, France (7270): Direction du vent: 17.09.2017 21:00:00 - 23.09.2017 21:00:00 (CEST)Chateau Chinon, France (7270): Quantités de précipitations: 17.09.2017 21:00:00 - 23.09.2017 21:00:00 (CEST)
Date & Time tt [°C] td [°C] ff [km/h] ff [knt] fx [km/h] fx [knt] dd rr [mm]
23.09.2017 21:00:00 12,4 10,3 2 1 5 3 E 0,0
23.09.2017 20:00:00 13,8 10,8 2 1 9 5 ENE -
23.09.2017 19:00:00 16,8 10,4 2 1 5 3 N 0,0
23.09.2017 18:00:00 18,9 9,9 0 0 4 2 N 0,0
23.09.2017 17:00:00 19,3 12,1 0 0 5 3 N 0,0
23.09.2017 16:00:00 19,7 11,5 0 0 9 5 N 0,0
23.09.2017 15:00:00 19,8 11,6 2 1 8 4 NW 0,0
23.09.2017 14:00:00 18,2 10,6 0 0 11 6 N -
23.09.2017 13:00:00 19,1 9,8 4 2 11 6 NE 0,0
23.09.2017 12:00:00 19,1 10,4 4 2 9 5 E 0,0
23.09.2017 11:00:00 18,0 11,1 2 1 9 5 E 0,0
23.09.2017 10:00:00 16,3 10,6 4 2 9 5 E 0,0
23.09.2017 09:00:00 11,4 9,5 4 2 9 5 E 0,0
23.09.2017 08:00:00 9,9 8,7 4 2 9 5 E -
23.09.2017 07:00:00 9,9 8,7 4 2 11 6 E 0,0
23.09.2017 06:00:00 10,5 8,9 5 3 11 6 E 0,2
23.09.2017 05:00:00 10,5 8,9 4 2 9 5 E 0,0
23.09.2017 04:00:00 10,4 8,8 4 2 11 6 E 0,0
23.09.2017 03:00:00 10,6 9,4 4 2 9 5 E 0,0
23.09.2017 02:00:00 10,7 9,3 4 2 13 7 E -
23.09.2017 01:00:00 11,0 9,6 4 2 15 8 E 0,0
23.09.2017 00:00:00 11,2 9,8 4 2 18 10 ENE 0,0
22.09.2017 23:00:00 11,2 9,9 5 3 16 9 ENE 0,0
22.09.2017 22:00:00 11,7 10,1 4 2 11 6 E 0,0
22.09.2017 21:00:00 12,7 10,2 2 1 8 4 E 0,0
22.09.2017 20:00:00 13,9 10,1 2 1 8 4 ENE -
22.09.2017 19:00:00 16,3 9,9 0 0 5 3 N 0,0
22.09.2017 18:00:00 17,7 10,3 0 0 5 3 N 0,0
22.09.2017 17:00:00 19,0 11,3 0 0 9 5 N 0,0
22.09.2017 16:00:00 20,1 11,3 2 1 11 6 WSW 0,0
22.09.2017 15:00:00 19,8 11,0 5 3 13 7 WSW 0,0
22.09.2017 14:00:00 19,2 10,7 4 2 13 7 W -
22.09.2017 13:00:00 18,6 10,4 2 1 8 4 W 0,0
22.09.2017 12:00:00 17,5 9,9 4 2 8 4 WSW 0,0
22.09.2017 11:00:00 16,5 8,9 0 0 4 2 N 0,0
22.09.2017 10:00:00 15,7 9,8 0 0 5 3 N 0,0
22.09.2017 09:00:00 12,3 8,9 0 0 8 4 N 0,0
22.09.2017 08:00:00 11,4 7,7 4 2 8 4 SSE -
22.09.2017 07:00:00 11,1 7,8 4 2 8 4 SSW 0,0
22.09.2017 06:00:00 11,0 6,7 4 2 8 4 S 0,0
22.09.2017 05:00:00 11,4 6,7 4 2 8 4 SSW 0,0
22.09.2017 04:00:00 11,9 6,0 4 2 8 4 S 0,0
22.09.2017 03:00:00 11,5 5,4 2 1 5 3 S 0,0
22.09.2017 02:00:00 11,3 5,4 2 1 8 4 S -
22.09.2017 01:00:00 12,2 5,6 5 3 8 4 SE 0,0
22.09.2017 00:00:00 12,0 5,8 5 3 8 4 SSE 0,0
21.09.2017 23:00:00 11,7 7,0 5 3 8 4 SE 0,0
21.09.2017 22:00:00 11,7 6,4 0 0 5 3 N 0,0
21.09.2017 21:00:00 11,7 7,0 4 2 8 4 ESE 0,0
21.09.2017 20:00:00 12,9 6,9 2 1 4 2 SSW -
21.09.2017 19:00:00 15,8 8,0 0 0 5 3 N 0,0
21.09.2017 18:00:00 18,3 8,0 2 1 9 5 W 0,0
21.09.2017 17:00:00 19,4 6,5 4 2 13 7 WNW 0,0
21.09.2017 16:00:00 19,3 6,7 2 1 13 7 WNW 0,0
21.09.2017 15:00:00 19,1 4,8 2 1 11 6 ESE 0,0
21.09.2017 14:00:00 18,1 8,1 4 2 11 6 S -
21.09.2017 13:00:00 17,8 4,4 4 2 13 7 S 0,0
21.09.2017 12:00:00 17,0 6,5 4 2 9 5 E 0,0
21.09.2017 11:00:00 15,9 7,4 2 1 9 5 E 0,0
21.09.2017 10:00:00 13,5 8,3 4 2 13 7 E 0,0
21.09.2017 09:00:00 9,3 6,6 4 2 18 10 E 0,0
21.09.2017 08:00:00 7,5 5,0 5 3 15 8 E -
21.09.2017 07:00:00 7,1 3,9 4 2 16 9 E 0,0
21.09.2017 06:00:00 7,2 5,0 5 3 15 8 E 0,0
21.09.2017 05:00:00 7,5 6,4 4 2 15 8 E 0,0
21.09.2017 04:00:00 7,4 6,3 4 2 15 8 E 0,2
21.09.2017 03:00:00 7,3 6,6 4 2 15 8 E 0,0
21.09.2017 02:00:00 7,0 6,4 4 2 13 7 E -
21.09.2017 01:00:00 7,0 6,3 4 2 9 5 E 0,0
21.09.2017 00:00:00 7,1 6,4 2 1 5 3 E 0,0
20.09.2017 23:00:00 7,8 6,3 4 2 9 5 E 0,0
20.09.2017 22:00:00 8,7 6,7 4 2 8 4 ESE 0,0
20.09.2017 21:00:00 9,5 7,1 2 1 5 3 ESE 0,0
20.09.2017 20:00:00 9,5 5,5 0 0 4 2 N -
20.09.2017 19:00:00 12,1 7,0 0 0 4 2 N 0,0
20.09.2017 18:00:00 13,1 8,0 0 0 8 4 N 0,0
20.09.2017 17:00:00 14,4 5,7 2 1 13 7 W 0,0
20.09.2017 16:00:00 14,9 7,2 4 2 8 4 SW 0,0
20.09.2017 15:00:00 13,4 6,9 0 0 15 8 N 0,0
20.09.2017 14:00:00 15,9 8,1 4 2 13 7 W -
20.09.2017 13:00:00 14,5 8,4 4 2 11 6 W 0,0
20.09.2017 12:00:00 13,7 9,9 4 2 9 5 W 0,0
20.09.2017 11:00:00 11,5 8,4 2 1 8 4 W 0,0
20.09.2017 10:00:00 10,1 9,8 0 0 5 3 N 0,0
20.09.2017 09:00:00 8,0 7,9 0 0 8 4 N 0,0
20.09.2017 08:00:00 6,2 6,1 5 3 8 4 ESE -
20.09.2017 07:00:00 6,2 6,1 0 0 4 2 N 0,0
20.09.2017 06:00:00 6,4 6,0 0 0 4 2 N 0,0
20.09.2017 05:00:00 6,9 6,6 0 0 4 2 N 0,0
20.09.2017 04:00:00 7,1 6,4 2 1 8 4 NNE 0,0
20.09.2017 03:00:00 7,1 6,7 2 1 8 4 NE 0,0
20.09.2017 02:00:00 7,0 6,7 2 1 8 4 E -
20.09.2017 01:00:00 7,0 6,7 0 0 5 3 N 0,0
20.09.2017 00:00:00 6,9 6,6 0 0 8 4 N 0,0
19.09.2017 23:00:00 6,8 6,7 0 0 5 3 N 0,0
19.09.2017 22:00:00 6,5 6,1 0 0 4 2 N 0,0
19.09.2017 21:00:00 7,1 6,4 0 0 8 4 N 0,0
19.09.2017 20:00:00 8,6 7,5 2 1 8 4 W -
19.09.2017 19:00:00 9,5 7,8 0 0 9 5 N 0,0
19.09.2017 18:00:00 10,4 8,2 2 1 11 6 NW 0,0
19.09.2017 17:00:00 10,1 8,0 4 2 15 8 WNW 0,0
19.09.2017 16:00:00 9,7 7,6 4 2 15 8 NW 0,2
19.09.2017 15:00:00 10,2 7,8 4 2 18 10 NW 0,0
19.09.2017 14:00:00 9,0 8,5 2 1 11 6 WNW -
19.09.2017 13:00:00 9,2 8,7 2 1 9 5 NW 0,0
19.09.2017 12:00:00 8,7 8,4 2 1 8 4 W 0,2
19.09.2017 11:00:00 7,4 7,3 2 1 16 9 NW 2,0
19.09.2017 10:00:00 7,8 7,8 0 0 5 3 N 0,0
19.09.2017 09:00:00 7,3 7,0 0 0 5 3 N 0,0
19.09.2017 08:00:00 7,3 7,2 0 0 4 2 N -
19.09.2017 07:00:00 7,3 7,2 0 0 4 2 N 0,0
19.09.2017 06:00:00 7,3 7,2 0 0 5 3 N 0,0
19.09.2017 05:00:00 7,1 6,8 0 0 8 4 N 0,0
19.09.2017 04:00:00 6,2 5,9 0 0 4 2 N 0,0
19.09.2017 03:00:00 6,4 6,1 0 0 5 3 N 0,2
19.09.2017 02:00:00 6,8 6,5 0 0 5 3 N -
19.09.2017 01:00:00 6,5 6,1 0 0 4 2 N 0,0
19.09.2017 00:00:00 7,4 7,0 0 0 4 2 N 0,0
18.09.2017 23:00:00 7,4 7,0 0 0 18 10 N 1,0
18.09.2017 22:00:00 6,9 6,3 0 0 5 3 N 0,0
18.09.2017 21:00:00 7,3 6,6 0 0 2 1 N 0,0
18.09.2017 20:00:00 8,8 7,6 2 1 8 4 WSW -
18.09.2017 19:00:00 10,4 7,5 0 0 4 2 N 0,0
18.09.2017 18:00:00 11,9 8,2 0 0 8 4 N 0,0
18.09.2017 17:00:00 11,9 7,2 0 0 9 5 N 0,0
18.09.2017 16:00:00 11,5 7,6 2 1 11 6 WSW 0,0
18.09.2017 15:00:00 12,2 7,7 2 1 9 5 NW 0,0
18.09.2017 14:00:00 12,2 8,3 2 1 9 5 WNW -
18.09.2017 13:00:00 11,9 8,0 2 1 11 6 WNW 0,0
18.09.2017 12:00:00 10,4 8,3 4 2 8 4 WSW 0,0
18.09.2017 11:00:00 8,3 8,0 2 1 9 5 W 0,0
18.09.2017 10:00:00 8,3 8,0 0 0 5 3 N 0,0
18.09.2017 09:00:00 7,7 7,6 0 0 4 2 N 0,0
18.09.2017 08:00:00 7,4 7,3 0 0 8 4 N -
18.09.2017 07:00:00 7,1 7,0 0 0 4 2 N 0,0
18.09.2017 06:00:00 6,9 6,8 0 0 4 2 N 0,0
18.09.2017 05:00:00 7,2 7,1 0 0 5 3 N 0,0
18.09.2017 04:00:00 7,4 7,3 0 0 8 4 N 0,0
18.09.2017 03:00:00 7,3 7,0 2 1 9 5 W 0,0
18.09.2017 02:00:00 7,5 7,4 0 0 9 5 N -
18.09.2017 01:00:00 7,7 7,6 2 1 9 5 NW 0,0
18.09.2017 00:00:00 7,9 7,6 2 1 15 8 ENE 0,0
17.09.2017 23:00:00 7,9 7,8 4 2 15 8 NE 0,0
17.09.2017 22:00:00 8,1 7,8 4 2 11 6 N 0,0
17.09.2017 21:00:00 8,1 8,0 4 2 13 7 W 0,4

tt = Température de l'air
td = dewpoint
ff = Vitesse du vent
fx = gusts
dd = Direction du vent
rr = Quantités de précipitations

stations d'obs. à proximité